OPA Logo
 
ASOS:
At:2019.04.23 1815 UTC
Wind:200° @ 5KT
Viz: 10 mile(s)
Sky: mostly cloudy
Temp: 64 F (18 C)
DewP: 48 F (9 C)
RH: 55%
Baro: 30.2 in.
ob: KBDN 231815Z AUTO 20005KT 10SM BKN047 BKN055 18/09 A3020 RMK AO2

ASOS: KRDM
At:2019.04.23 1756 UTC
Wind:Variable @ 3KT
Viz: 10 mile(s)
Sky: clear
Temp: 64.9 F (18.3 C)
DewP: 48.9 F (9.4 C)
RH: 56%
Baro: 30.2 in.
ob: KRDM 231756Z VRB03KT 10SM CLR 18/09 A3020 RMK AO2 SLP212 6//// T01830094 10183 20100 58003 PNO
Apache-SSL Logo

Valid HTML 4.01!

Central Oregon OPA Chapter

Chapter Officers 2006:

President
Gary E. Miller
109 NW Wilmington Ave.
Bend OR 97701
541 382-8588
gem@rellim.com

Vice President:
Open

Secretary/Treasurer:
Don Wilfong
210 SE Cessna Dr
Bend OR 97702
541 389-1456
dwnw@bendbroadband.com


Web page by: gem@rellim.com